Time;durP1;ratioP1;P1;durP2;ratioP2;P2;SDS_P1;SDS_P2;PMS_P1;PMS_P2;Temp;Humidity;BMP_temperature;BMP_pressure;BME280_temperature;BME280_humidity;BME280_pressure;Samples;Min_cycle;Max_cycle;Signal;HPM_P1;HPM_P2
2022/03/12 00:00:56;;;;;;;;;;;;;;;21.47;36.05;102119.50;5072472;28;4158;-69
2022/03/12 00:03:23;;;;;;;;;;;;;;;21.47;36.25;102122.38;5069581;28;4117;-69
2022/03/12 00:05:54;;;;;;;;;;;;;;;21.45;36.10;102128.03;5070177;28;5204;-68
2022/03/12 00:08:21;;;;;;;;;;;;;;;21.46;36.27;102129.50;5074813;28;4165;-68
2022/03/12 00:10:50;;;;;;;;;;;;;;;21.46;36.01;102117.97;5078693;28;5348;-67
2022/03/12 00:13:19;;;;;;;;;;;;;;;21.47;36.04;102116.63;5074552;28;5543;-67
2022/03/12 00:15:47;;;;;;;;;;;;;;;21.50;36.12;102118.25;5073635;28;4299;-67
2022/03/12 00:18:20;;;;;;;;;;;;;;;21.52;36.23;102118.38;5072182;28;4011;-68
2022/03/12 00:20:48;;;;;;;;;;;;;;;21.52;36.10;102119.13;5078301;28;4131;-67
2022/03/12 00:23:18;;;;;;;;;;;;;;;21.51;36.09;102117.63;5074937;28;5016;-67
2022/03/12 00:25:48;;;;;;;;;;;;;;;21.49;36.17;102111.00;5077704;27;4060;-67
2022/03/12 00:28:16;;;;;;;;;;;;;;;21.49;36.08;102111.00;5077231;28;4184;-68
2022/03/12 00:30:47;;;;;;;;;;;;;;;21.46;36.16;102120.88;5076799;28;4066;-67
2022/03/12 00:33:21;;;;;;;;;;;;;;;21.46;36.19;102115.09;5072173;28;3979;-67
2022/03/12 00:35:49;;;;;;;;;;;;;;;21.44;36.21;102120.75;5075643;28;4001;-67
2022/03/12 00:38:16;;;;;;;;;;;;;;;21.43;36.02;102127.91;5069300;28;4211;-68
2022/03/12 00:40:43;;;;;;;;;;;;;;;21.43;36.05;102122.13;5075823;28;5439;-68
2022/03/12 00:43:11;;;;;;;;;;;;;;;21.40;36.12;102120.47;5076571;28;4197;-68
2022/03/12 00:45:39;;;;;;;;;;;;;;;21.42;36.07;102112.00;5077252;28;5178;-68
2022/03/12 00:48:06;;;;;;;;;;;;;;;21.40;36.07;102120.47;5076280;28;4386;-68
2022/03/12 00:50:53;;;;;;;;;;;;;;;21.38;35.95;102117.47;5076773;28;4286;-68
2022/03/12 00:53:19;;;;;;;;;;;;;;;21.38;35.98;102123.22;5077917;28;4196;-68
2022/03/12 00:55:46;;;;;;;;;;;;;;;21.38;36.01;102114.59;5078450;28;4251;-68
2022/03/12 00:58:12;;;;;;;;;;;;;;;21.40;35.98;102114.72;5075064;28;5296;-68
2022/03/12 01:00:38;;;;;;;;;;;;;;;21.40;35.88;102115.50;5073100;28;4108;-68
2022/03/12 01:03:05;;;;;;;;;;;;;;;21.40;35.91;102109.72;5076481;28;4396;-67
2022/03/12 01:05:50;;;;;;;;;;;;;;;21.43;35.90;102110.59;5078281;28;4077;-68
2022/03/12 01:08:17;;;;;;;;;;;;;;;21.44;35.92;102106.34;5077880;28;4172;-67
2022/03/12 01:10:43;;;;;;;;;;;;;;;21.42;35.99;102098.34;5075552;28;4383;-68
2022/03/12 01:13:11;;;;;;;;;;;;;;;21.44;35.86;102098.47;5077891;28;5106;-67
2022/03/12 01:15:37;;;;;;;;;;;;;;;21.44;35.81;102097.69;5076453;28;4184;-68
2022/03/12 01:18:03;;;;;;;;;;;;;;;21.43;35.85;102101.97;5074642;28;4242;-68
2022/03/12 01:20:30;;;;;;;;;;;;;;;21.42;36.07;102106.22;5074983;28;4299;-68
2022/03/12 01:22:56;;;;;;;;;;;;;;;21.43;35.93;102101.97;5077429;28;4232;-68
2022/03/12 01:25:22;;;;;;;;;;;;;;;21.41;35.92;102105.47;5074827;28;5472;-67
2022/03/12 01:27:49;;;;;;;;;;;;;;;21.40;36.15;102103.97;5076473;28;4295;-68
2022/03/12 01:30:15;;;;;;;;;;;;;;;21.40;35.89;102108.94;5076549;28;4091;-68
2022/03/12 01:32:41;;;;;;;;;;;;;;;21.41;36.00;102110.47;5075283;28;5346;-68
2022/03/12 01:35:08;;;;;;;;;;;;;;;21.40;35.87;102103.97;5074300;28;4200;-68
2022/03/12 01:37:34;;;;;;;;;;;;;;;21.40;35.94;102103.19;5075959;28;4021;-68
2022/03/12 01:40:00;;;;;;;;;;;;;;;21.38;35.85;102094.41;5074264;28;5305;-68
2022/03/12 01:42:27;;;;;;;;;;;;;;;21.37;35.96;102098.66;5073304;28;4044;-67
2022/03/12 01:44:53;;;;;;;;;;;;;;;21.36;35.97;102086.38;5076953;28;4238;-68
2022/03/12 01:47:21;;;;;;;;;;;;;;;21.37;36.08;102092.91;5073422;28;4176;-68
2022/03/12 01:49:47;;;;;;;;;;;;;;;21.36;35.85;102091.41;5075515;28;4234;-67
2022/03/12 01:52:14;;;;;;;;;;;;;;;21.36;35.93;102094.28;5074231;28;4218;-67
2022/03/12 01:54:43;;;;;;;;;;;;;;;21.36;35.82;102097.91;5076315;28;4005;-68
2022/03/12 01:57:09;;;;;;;;;;;;;;;21.39;35.80;102090.16;5074637;28;4526;-68
2022/03/12 01:59:36;;;;;;;;;;;;;;;21.41;35.81;102093.94;5076913;28;4200;-67
2022/03/12 02:02:03;;;;;;;;;;;;;;;21.42;35.89;102089.69;5071714;28;4249;-67
2022/03/12 02:04:30;;;;;;;;;;;;;;;21.40;36.02;102080.13;5076702;28;4096;-68
2022/03/12 02:06:59;;;;;;;;;;;;;;;21.39;35.78;102088.00;5075029;28;4073;-68
2022/03/12 02:09:26;;;;;;;;;;;;;;;21.38;35.91;102088.66;5073646;28;4188;-67
2022/03/12 02:11:52;;;;;;;;;;;;;;;21.37;35.92;102090.75;5074459;28;4244;-68
2022/03/12 02:14:23;;;;;;;;;;;;;;;21.37;35.84;102090.03;5076112;28;4022;-68
2022/03/12 02:16:53;;;;;;;;;;;;;;;21.34;35.74;102078.38;5074367;28;4419;-68
2022/03/12 02:19:19;;;;;;;;;;;;;;;21.36;35.74;102079.88;5055138;28;4151;-68
2022/03/12 02:21:50;;;;;;;;;;;;;;;21.34;35.85;102078.38;5072595;28;4173;-68
2022/03/12 02:24:16;;;;;;;;;;;;;;;21.34;35.78;102072.59;5076676;28;4434;-68
2022/03/12 02:26:43;;;;;;;;;;;;;;;21.33;35.84;102074.00;5074833;28;5738;-68
2022/03/12 02:29:12;;;;;;;;;;;;;;;21.32;35.99;102065.97;5073448;28;4158;-67
2022/03/12 02:31:39;;;;;;;;;;;;;;;21.31;35.82;102062.34;5074401;28;4074;-66
2022/03/12 02:34:07;;;;;;;;;;;;;;;21.30;35.90;102066.63;5078385;28;4394;-67
2022/03/12 02:36:33;;;;;;;;;;;;;;;21.31;35.94;102070.25;5079630;28;4003;-66
2022/03/12 02:39:03;;;;;;;;;;;;;;;21.31;35.80;102065.22;5080666;28;4171;-67
2022/03/12 02:41:29;;;;;;;;;;;;;;;21.32;35.75;102075.34;5077419;28;4078;-66
2022/03/12 02:43:55;;;;;;;;;;;;;;;21.33;35.74;102071.13;5079840;28;4243;-67
2022/03/12 02:46:27;;;;;;;;;;;;;;;21.34;35.70;102075.47;5077001;28;4076;-67
2022/03/12 02:48:56;;;;;;;;;;;;;;;21.34;35.77;102071.84;5080326;28;4366;-67
2022/03/12 02:51:23;;;;;;;;;;;;;;;21.34;35.58;102063.22;5077463;28;4107;-67
2022/03/12 02:53:55;;;;;;;;;;;;;;;21.36;35.65;102071.25;5077129;28;5625;-67
2022/03/12 02:56:25;;;;;;;;;;;;;;;21.34;35.88;102060.34;5077125;27;4202;-67
2022/03/12 02:58:52;;;;;;;;;;;;;;;21.32;35.85;102071.72;5078028;28;4244;-67
2022/03/12 03:01:19;;;;;;;;;;;;;;;21.31;35.83;102061.59;5077308;28;4169;-67
2022/03/12 03:03:46;;;;;;;;;;;;;;;21.32;35.96;102066.72;5078466;27;4234;-66
2022/03/12 03:06:14;;;;;;;;;;;;;;;21.31;35.64;102062.34;5076364;28;5316;-67
2022/03/12 03:08:43;;;;;;;;;;;;;;;21.30;35.90;102063.72;5077263;28;4253;-67
2022/03/12 03:11:10;;;;;;;;;;;;;;;21.32;35.66;102063.84;5075672;28;4086;-67
2022/03/12 03:13:37;;;;;;;;;;;;;;;21.32;35.71;102063.09;5078867;28;4100;-66
2022/03/12 03:16:06;;;;;;;;;;;;;;;21.29;35.71;102065.09;5076679;28;4218;-67
2022/03/12 03:18:33;;;;;;;;;;;;;;;21.27;35.82;102067.09;5077133;28;4128;-67
2022/03/12 03:21:00;;;;;;;;;;;;;;;21.28;35.75;102062.81;5076479;28;4297;-67
2022/03/12 03:23:28;;;;;;;;;;;;;;;21.26;35.83;102069.25;5079550;28;4038;-67
2022/03/12 03:25:54;;;;;;;;;;;;;;;21.28;35.73;102068.59;5079325;28;4239;-67
2022/03/12 03:28:21;;;;;;;;;;;;;;;21.27;35.81;102073.59;5079324;28;4265;-67
2022/03/12 03:30:47;;;;;;;;;;;;;;;21.28;35.58;102063.59;5075973;28;4172;-67
2022/03/12 03:33:16;;;;;;;;;;;;;;;21.29;35.78;102065.09;5077109;28;4333;-67
2022/03/12 03:35:42;;;;;;;;;;;;;;;21.29;35.69;102065.09;5077511;28;4111;-67
2022/03/12 03:38:09;;;;;;;;;;;;;;;21.29;35.67;102047.81;5078965;28;5251;-67
2022/03/12 03:40:35;;;;;;;;;;;;;;;21.29;35.73;102052.81;5077114;28;4278;-68
2022/03/12 03:43:03;;;;;;;;;;;;;;;21.28;35.66;102057.84;5077162;27;4240;-66
2022/03/12 03:45:29;;;;;;;;;;;;;;;21.26;35.84;102059.84;5075659;28;4098;-67
2022/03/12 03:47:55;;;;;;;;;;;;;;;21.24;35.88;102057.59;5076842;28;4228;-66
2022/03/12 03:50:25;;;;;;;;;;;;;;;21.22;35.78;102051.69;5073680;28;5233;-68
2022/03/12 03:53:02;;;;;;;;;;;;;;;21.24;35.60;102054.69;5080020;28;4049;-68
2022/03/12 03:55:28;;;;;;;;;;;;;;;21.25;35.62;102052.56;5076798;28;4035;-67
2022/03/12 03:57:57;;;;;;;;;;;;;;;21.26;35.60;102054.81;5074454;28;4135;-67
2022/03/12 04:00:23;;;;;;;;;;;;;;;21.26;35.60;102049.06;5077309;28;4350;-67
2022/03/12 04:02:55;;;;;;;;;;;;;;;21.27;35.58;102056.31;5078634;28;4238;-67
2022/03/12 04:05:22;;;;;;;;;;;;;;;21.28;35.60;102059.94;5077239;28;4205;-67
2022/03/12 04:07:49;;;;;;;;;;;;;;;21.27;35.66;102061.34;5078377;28;4185;-67
2022/03/12 04:10:15;;;;;;;;;;;;;;;21.29;35.62;102067.97;5074419;28;4057;-67
2022/03/12 04:12:41;;;;;;;;;;;;;;;21.32;35.75;102065.97;5077800;28;4274;-67
2022/03/12 04:15:08;;;;;;;;;;;;;;;21.32;35.66;102063.09;5078123;28;5331;-67
2022/03/12 04:17:35;;;;;;;;;;;;;;;21.32;35.75;102075.34;5077054;28;4233;-67
2022/03/12 04:20:01;;;;;;;;;;;;;;;21.32;35.83;102069.59;5076961;28;4221;-68
2022/03/12 04:22:27;;;;;;;;;;;;;;;21.33;35.73;102073.25;5078077;28;4991;-67
2022/03/12 04:24:54;;;;;;;;;;;;;;;21.32;35.76;102074.59;5078560;28;4199;-68
2022/03/12 04:27:22;;;;;;;;;;;;;;;21.31;35.86;102068.09;5075213;28;4176;-67
2022/03/12 04:29:48;;;;;;;;;;;;;;;21.30;35.76;102072.38;5074162;28;4111;-68
2022/03/12 04:32:14;;;;;;;;;;;;;;;21.26;35.68;102069.25;5077519;28;4047;-67
2022/03/12 04:34:41;;;;;;;;;;;;;;;21.18;35.40;102067.97;5076110;28;4064;-67
2022/03/12 04:37:07;;;;;;;;;;;;;;;21.20;35.23;102077.50;5076566;28;3988;-66
2022/03/12 04:39:34;;;;;;;;;;;;;;;21.22;35.45;102071.84;5076025;28;5654;-68
2022/03/12 04:42:00;;;;;;;;;;;;;;;21.22;35.59;102063.22;5077981;28;4219;-67
2022/03/12 04:44:26;;;;;;;;;;;;;;;21.24;35.62;102069.09;5078250;28;4523;-67
2022/03/12 04:46:53;;;;;;;;;;;;;;;21.23;35.65;102063.97;5075734;28;4242;-67
2022/03/12 04:49:20;;;;;;;;;;;;;;;21.22;35.72;102071.84;5076840;28;4528;-67
2022/03/12 04:51:47;;;;;;;;;;;;;;;21.22;35.74;102077.63;5075464;28;4175;-67
2022/03/12 04:54:13;;;;;;;;;;;;;;;21.21;35.83;102073.25;5077338;28;4418;-67
2022/03/12 04:56:39;;;;;;;;;;;;;;;21.20;35.92;102074.63;5076628;28;5134;-67
2022/03/12 04:59:06;;;;;;;;;;;;;;;21.19;35.93;102073.13;5076662;28;4344;-67
2022/03/12 05:01:32;;;;;;;;;;;;;;;21.21;36.13;102073.25;5076363;28;4216;-67
2022/03/12 05:03:59;;;;;;;;;;;;;;;21.23;36.02;102070.47;5077917;28;4432;-66
2022/03/12 05:06:26;;;;;;;;;;;;;;;21.22;36.32;102071.13;5078934;28;4123;-67
2022/03/12 05:08:53;;;;;;;;;;;;;;;21.24;36.23;102083.50;5077212;28;4389;-67
2022/03/12 05:11:19;;;;;;;;;;;;;;;21.26;36.22;102083.63;5076822;28;4169;-67
2022/03/12 05:13:46;;;;;;;;;;;;;;;21.27;36.33;102078.63;5076471;28;4285;-67
2022/03/12 05:16:13;;;;;;;;;;;;;;;21.28;36.33;102075.13;5077272;28;4319;-66
2022/03/12 05:18:40;;;;;;;;;;;;;;;21.29;36.29;102079.50;5077644;28;4038;-66
2022/03/12 05:21:06;;;;;;;;;;;;;;;21.29;36.36;102078.75;5075455;28;4097;-66
2022/03/12 05:23:33;;;;;;;;;;;;;;;21.30;36.38;102083.13;5076907;28;4469;-66
2022/03/12 05:26:00;;;;;;;;;;;;;;;21.28;36.43;102086.66;5073630;28;5302;-67
2022/03/12 05:28:30;;;;;;;;;;;;;;;21.28;36.37;102089.53;5077605;28;4066;-67
2022/03/12 05:31:04;;;;;;;;;;;;;;;21.26;36.46;102083.63;5076355;27;4165;-66
2022/03/12 05:33:31;;;;;;;;;;;;;;;21.25;36.42;102087.88;5077333;28;4333;-67
2022/03/12 05:35:58;;;;;;;;;;;;;;;21.24;36.40;102088.53;5075814;28;4670;-66
2022/03/12 05:38:25;;;;;;;;;;;;;;;21.23;36.47;102090.63;5076005;28;4235;-67
2022/03/12 05:40:51;;;;;;;;;;;;;;;21.22;36.29;102089.16;5076496;28;4038;-66
2022/03/12 05:43:18;;;;;;;;;;;;;;;21.23;36.43;102096.41;5077501;28;4203;-67
2022/03/12 05:45:45;;;;;;;;;;;;;;;21.21;36.41;102098.41;5074256;28;4221;-67
2022/03/12 05:48:12;;;;;;;;;;;;;;;21.20;36.45;102100.53;5077416;28;5324;-66
2022/03/12 05:50:38;;;;;;;;;;;;;;;21.22;36.30;102099.91;5074580;28;4771;-67
2022/03/12 05:53:08;;;;;;;;;;;;;;;21.21;36.26;102110.69;5075269;28;4378;-67
2022/03/12 05:55:39;;;;;;;;;;;;;;;21.21;36.37;102109.94;5077326;28;4010;-67
2022/03/12 05:58:06;;;;;;;;;;;;;;;21.22;36.30;102106.44;5073282;27;4170;-67
2022/03/12 06:00:35;;;;;;;;;;;;;;;21.23;36.27;102113.69;5075243;28;4303;-67
2022/03/12 06:03:03;;;;;;;;;;;;;;;21.23;36.27;102113.69;5075208;28;4071;-67
2022/03/12 06:05:31;;;;;;;;;;;;;;;21.24;36.52;102114.47;5080090;28;4257;-67
2022/03/12 06:07:59;;;;;;;;;;;;;;;21.24;36.34;102120.97;5081585;28;5411;-67
2022/03/12 06:10:28;;;;;;;;;;;;;;;21.25;36.29;102122.47;5080515;28;5244;-67
2022/03/12 06:12:56;;;;;;;;;;;;;;;21.25;36.25;102119.56;5079246;28;4265;-67
2022/03/12 06:15:23;;;;;;;;;;;;;;;21.24;36.36;102138.25;5080546;28;4090;-67
2022/03/12 06:17:50;;;;;;;;;;;;;;;21.24;36.30;102126.72;5081515;28;4237;-67
2022/03/12 06:20:16;;;;;;;;;;;;;;;21.23;36.29;102125.22;5080015;28;4170;-67
2022/03/12 06:22:43;;;;;;;;;;;;;;;21.23;36.24;102125.22;5082126;28;6389;-66
2022/03/12 06:25:11;;;;;;;;;;;;;;;21.22;36.45;102129.47;5078803;28;4067;-67
2022/03/12 06:27:38;;;;;;;;;;;;;;;21.22;36.25;102122.97;5079982;28;4242;-67
2022/03/12 06:30:04;;;;;;;;;;;;;;;21.21;36.17;102127.22;5078407;28;4309;-66
2022/03/12 06:32:31;;;;;;;;;;;;;;;21.21;36.43;102125.09;5079803;28;4066;-67
2022/03/12 06:34:58;;;;;;;;;;;;;;;21.21;36.22;102127.97;5078244;28;4235;-67
2022/03/12 06:37:25;;;;;;;;;;;;;;;21.21;36.30;102125.09;5078816;28;4079;-67
2022/03/12 06:39:51;;;;;;;;;;;;;;;21.21;36.29;102136.63;5079217;28;5117;-67
2022/03/12 06:42:19;;;;;;;;;;;;;;;21.21;36.29;102122.22;5080149;27;4215;-67
2022/03/12 06:44:45;;;;;;;;;;;;;;;21.22;36.30;102132.34;5079016;28;4297;-67
2022/03/12 06:47:12;;;;;;;;;;;;;;;21.22;36.18;102132.34;5079217;28;4202;-67
2022/03/12 06:49:39;;;;;;;;;;;;;;;21.23;36.28;102133.84;5081435;28;4320;-67
2022/03/12 06:52:06;;;;;;;;;;;;;;;21.23;36.31;102125.22;5079332;28;5507;-67
2022/03/12 06:54:33;;;;;;;;;;;;;;;21.26;36.35;102126.13;5077592;28;4209;-66
2022/03/12 06:57:02;;;;;;;;;;;;;;;21.25;36.30;102122.47;5077364;28;5037;-67
2022/03/12 06:59:28;;;;;;;;;;;;;;;21.26;36.36;102132.63;5078795;28;4156;-67
2022/03/12 07:01:54;;;;;;;;;;;;;;;21.26;36.58;102134.75;5079717;28;4265;-67
2022/03/12 07:04:21;;;;;;;;;;;;;;;21.25;36.39;102128.22;5080869;28;4314;-67
2022/03/12 07:06:48;;;;;;;;;;;;;;;21.25;36.36;102136.84;5080804;28;4164;-67
2022/03/12 07:09:15;;;;;;;;;;;;;;;21.25;36.54;102139.00;5078954;28;4219;-66
2022/03/12 07:11:41;;;;;;;;;;;;;;;21.23;36.51;102142.50;5080627;28;4203;-67
2022/03/12 07:14:08;;;;;;;;;;;;;;;21.24;36.40;102143.25;5081093;28;4209;-67
2022/03/12 07:16:34;;;;;;;;;;;;;;;21.25;36.52;102151.25;5079889;28;4205;-67
2022/03/12 07:19:01;;;;;;;;;;;;;;;21.24;36.43;102146.91;5080761;28;4087;-67
2022/03/12 07:21:28;;;;;;;;;;;;;;;21.25;36.47;102154.16;5080273;28;4156;-67
2022/03/12 07:23:54;;;;;;;;;;;;;;;21.22;36.53;102148.91;5079112;28;4439;-67
2022/03/12 07:26:21;;;;;;;;;;;;;;;21.23;36.41;102153.28;5078210;28;4521;-70
2022/03/12 07:28:48;;;;;;;;;;;;;;;21.31;36.28;102148.78;5076248;28;4063;-69
2022/03/12 07:31:15;;;;;;;;;;;;;;;21.32;36.18;102150.28;5076844;28;4260;-71
2022/03/12 07:33:44;;;;;;;;;;;;;;;21.31;36.51;102148.78;5078351;28;4272;-70
2022/03/12 07:36:12;;;;;;;;;;;;;;;21.40;36.33;102149.28;5079025;28;4194;-68
2022/03/12 07:38:39;;;;;;;;;;;;;;;21.43;36.38;102150.94;5079060;28;4233;-70
2022/03/12 07:41:05;;;;;;;;;;;;;;;21.47;36.29;102142.56;5079137;28;4058;-66
2022/03/12 07:43:32;;;;;;;;;;;;;;;21.43;36.52;102148.81;5081827;28;4216;-70
2022/03/12 07:46:01;;;;;;;;;;;;;;;21.40;36.34;102155.06;5079611;28;4418;-70
2022/03/12 07:48:28;;;;;;;;;;;;;;;21.41;36.14;102153.69;5075862;28;4158;-70
2022/03/12 07:51:06;;;;;;;;;;;;;;;21.43;36.34;102148.06;5075687;28;4552;-71
2022/03/12 07:53:32;;;;;;;;;;;;;;;21.45;36.21;102139.56;5079802;28;4074;-70
2022/03/12 07:55:59;;;;;;;;;;;;;;;21.44;35.98;102149.56;5079621;28;5336;-70
2022/03/12 07:58:27;;;;;;;;;;;;;;;21.44;35.90;102140.91;5079234;28;5486;-69
2022/03/12 08:00:55;;;;;;;;;;;;;;;21.44;35.87;102141.69;5077315;28;4226;-72
2022/03/12 08:03:23;;;;;;;;;;;;;;;21.44;35.63;102146.69;5078246;28;4118;-71
2022/03/12 08:05:50;;;;;;;;;;;;;;;21.44;35.68;102146.69;5079062;28;5319;-70
2022/03/12 08:08:17;;;;;;;;;;;;;;;21.44;35.40;102149.56;5078999;28;5324;-70
2022/03/12 08:13:29;;;;;;;;;;;;;;;21.43;35.62;102142.31;5076741;28;4164;-70
2022/03/12 08:15:56;;;;;;;;;;;;;;;21.43;35.55;102153.84;5074182;28;4130;-70
2022/03/12 08:18:23;;;;;;;;;;;;;;;21.43;35.21;102165.34;5073025;28;4032;-70
2022/03/12 08:20:50;;;;;;;;;;;;;;;21.46;34.94;102162.00;5076096;28;5395;-70
2022/03/12 08:23:17;;;;;;;;;;;;;;;21.48;35.01;102150.56;5070357;28;4193;-70
2022/03/12 08:25:43;;;;;;;;;;;;;;;21.48;34.92;102162.09;5077222;28;4231;-70
2022/03/12 08:28:09;;;;;;;;;;;;;;;21.49;34.91;102160.72;5074333;28;4196;-69
2022/03/12 08:30:36;;;;;;;;;;;;;;;21.49;34.78;102145.56;5078120;28;5486;-69
2022/03/12 08:33:04;;;;;;;;;;;;;;;21.48;34.96;102141.16;5074395;28;4219;-70
2022/03/12 08:35:31;;;;;;;;;;;;;;;21.50;34.79;102141.28;5072274;28;4184;-70
2022/03/12 08:37:57;;;;;;;;;;;;;;;21.49;34.91;102139.81;5074316;28;4266;-69
2022/03/12 08:40:25;;;;;;;;;;;;;;;21.49;34.62;102142.69;5066091;28;5001;-69
2022/03/12 08:42:52;;;;;;;;;;;;;;;21.48;34.42;102155.59;5071196;28;5305;-70
2022/03/12 08:45:20;;;;;;;;;;;;;;;21.49;34.49;102142.69;5076566;28;4138;-69
2022/03/12 08:47:47;;;;;;;;;;;;;;;21.47;34.73;102145.44;5070725;28;4252;-69
2022/03/12 08:50:13;;;;;;;;;;;;;;;21.49;34.40;102139.81;5074626;27;4389;-70
2022/03/12 08:52:40;;;;;;;;;;;;;;;21.50;34.04;102147.81;5069315;28;5371;-70
2022/03/12 08:55:06;;;;;;;;;;;;;;;21.50;34.27;102138.41;5070355;27;4377;-69
2022/03/12 08:57:32;;;;;;;;;;;;;;;21.48;34.37;102129.66;5071563;28;5190;-69
2022/03/12 08:59:59;;;;;;;;;;;;;;;21.50;34.02;102129.78;5067554;27;4219;-69
2022/03/12 09:02:26;;;;;;;;;;;;;;;21.49;33.84;102128.28;5065592;28;5564;-67
2022/03/12 09:04:53;;;;;;;;;;;;;;;21.57;34.33;102128.75;5070786;28;5150;-66
2022/03/12 09:07:20;;;;;;;;;;;;;;;21.57;34.02;102139.56;5073497;28;4234;-70
2022/03/12 09:09:46;;;;;;;;;;;;;;;21.50;34.24;102113.22;5070512;28;4240;-70
2022/03/12 09:12:12;;;;;;;;;;;;;;;21.50;34.02;102113.22;5071938;28;5170;-69
2022/03/12 09:14:39;;;;;;;;;;;;;;;21.50;33.86;102100.94;5070490;28;4065;-69
2022/03/12 09:17:05;;;;;;;;;;;;;;;21.49;34.18;102116.75;5069872;28;5176;-69
2022/03/12 09:19:32;;;;;;;;;;;;;;;21.49;34.05;102111.00;5075131;28;4177;-70
2022/03/12 09:21:59;;;;;;;;;;;;;;;21.49;34.05;102116.75;5075259;28;4086;-69
2022/03/12 09:24:25;;;;;;;;;;;;;;;21.45;34.25;102107.84;5073957;28;4380;-69
2022/03/12 09:26:53;;;;;;;;;;;;;;;21.43;34.69;102107.72;5070766;28;4276;-70
2022/03/12 09:29:19;;;;;;;;;;;;;;;21.42;34.68;102109.84;5073371;28;4189;-70
2022/03/12 09:31:46;;;;;;;;;;;;;;;21.41;34.85;102119.88;5072735;28;5406;-70
2022/03/12 09:34:12;;;;;;;;;;;;;;;21.41;34.78;102116.25;5070744;28;4450;-69
2022/03/12 09:36:40;;;;;;;;;;;;;;;21.41;35.05;102116.25;5070471;28;4556;-69
2022/03/12 09:39:06;;;;;;;;;;;;;;;21.41;35.34;102101.84;5073018;28;5297;-69
2022/03/12 09:41:34;;;;;;;;;;;;;;;21.45;35.17;102104.97;5068956;28;4371;-72
2022/03/12 09:44:01;;;;;;;;;;;;;;;21.55;35.54;102102.69;5074639;28;4269;-67
2022/03/12 09:46:27;;;;;;;;;;;;;;;21.54;35.67;102101.22;5076360;28;4107;-64
2022/03/12 09:48:54;;;;;;;;;;;;;;;21.52;36.23;102098.94;5072994;28;5240;-63
2022/03/12 09:51:21;;;;;;;;;;;;;;;21.52;36.31;102092.44;5075495;28;4224;-64
2022/03/12 09:53:48;;;;;;;;;;;;;;;21.51;36.27;102091.69;5077962;28;4275;-63
2022/03/12 09:56:14;;;;;;;;;;;;;;;21.55;36.70;102085.41;5076933;28;5247;-63
2022/03/12 09:58:41;;;;;;;;;;;;;;;21.54;36.54;102086.78;5072808;28;5532;-65
2022/03/12 10:01:09;;;;;;;;;;;;;;;21.54;36.85;102089.69;5075420;28;4242;-63
2022/03/12 10:03:37;;;;;;;;;;;;;;;21.53;37.00;102077.41;5076565;28;4196;-64
2022/03/12 10:06:03;;;;;;;;;;;;;;;21.51;37.18;102076.53;5074119;28;4358;-63
2022/03/12 10:08:30;;;;;;;;;;;;;;;21.52;36.98;102080.91;5077876;28;4242;-64
2022/03/12 10:10:56;;;;;;;;;;;;;;;21.51;37.02;102076.53;5079312;28;4223;-64
2022/03/12 10:13:23;;;;;;;;;;;;;;;21.51;37.16;102079.41;5075742;28;5257;-64
2022/03/12 10:15:49;;;;;;;;;;;;;;;21.52;37.12;102069.38;5075345;28;5325;-63
2022/03/12 10:18:15;;;;;;;;;;;;;;;21.49;37.43;102076.41;5075492;28;5372;-63
2022/03/12 10:20:44;;;;;;;;;;;;;;;21.52;37.51;102078.03;5076663;28;4114;-63
2022/03/12 10:23:10;;;;;;;;;;;;;;;21.50;37.20;102072.88;5075597;28;5361;-63
2022/03/12 10:25:39;;;;;;;;;;;;;;;21.52;37.32;102063.59;5080258;28;4368;-63
2022/03/12 10:28:05;;;;;;;;;;;;;;;21.52;37.45;102069.38;5077775;28;5682;-63
2022/03/12 10:30:31;;;;;;;;;;;;;;;21.53;37.35;102070.88;5075559;28;4238;-63
2022/03/12 10:32:58;;;;;;;;;;;;;;;21.51;37.48;102067.88;5075416;28;4207;-62
2022/03/12 10:35:25;;;;;;;;;;;;;;;21.53;37.71;102065.09;5076191;28;5219;-63
2022/03/12 10:37:53;;;;;;;;;;;;;;;21.57;37.40;102071.13;5077660;28;4016;-63
2022/03/12 10:40:20;;;;;;;;;;;;;;;21.62;38.62;102055.56;5076233;28;5519;-62
2022/03/12 10:42:51;;;;;;;;;;;;;;;21.60;39.02;102058.34;5077561;28;4069;-61
2022/03/12 10:45:18;;;;;;;;;;;;;;;21.62;39.20;102061.31;5073056;28;4076;-62
2022/03/12 10:47:46;;;;;;;;;;;;;;;21.59;39.27;102064.72;5073096;28;4246;-63
2022/03/12 10:50:22;;;;;;;;;;;;;;;21.65;38.51;102059.34;5077397;28;4150;-66
2022/03/12 10:52:50;;;;;;;;;;;;;;;21.62;39.79;102055.56;5078268;28;4655;-64
2022/03/12 10:55:26;;;;;;;;;;;;;;;21.46;37.80;102057.47;5075834;28;5233;-61
2022/03/12 10:57:56;;;;;;;;;;;;;;;20.59;31.08;102051.38;5070336;28;4625;-61
2022/03/12 11:00:23;;;;;;;;;;;;;;;20.59;29.99;102053.47;5074753;28;4486;-63
2022/03/12 11:02:54;;;;;;;;;;;;;;;20.95;29.51;102060.06;5073702;28;4392;-66
2022/03/12 11:05:26;;;;;;;;;;;;;;;21.15;33.33;102052.69;5078295;28;5273;-67
2022/03/12 11:08:04;;;;;;;;;;;;;;;21.24;33.43;102048.19;5076858;28;4449;-69
2022/03/12 11:10:33;;;;;;;;;;;;;;;21.27;33.63;102038.28;5075702;27;4983;-71
2022/03/12 11:13:01;;;;;;;;;;;;;;;21.28;33.71;102040.56;5074688;28;4191;-71
2022/03/12 11:15:28;;;;;;;;;;;;;;;21.31;33.71;102038.53;5076523;28;4132;-71
2022/03/12 11:17:55;;;;;;;;;;;;;;;21.32;33.65;102040.78;5079681;28;4054;-71
2022/03/12 11:20:21;;;;;;;;;;;;;;;21.33;33.70;102041.56;5078715;28;4269;-71
2022/03/12 11:23:07;;;;;;;;;;;;;;;21.32;33.75;102040.78;5075682;28;4228;-71
2022/03/12 11:25:36;;;;;;;;;;;;;;;21.31;33.78;102039.28;5080138;28;5237;-71
2022/03/12 11:28:16;;;;;;;;;;;;;;;21.32;33.97;102042.91;5076765;28;4219;-70
2022/03/12 11:30:42;;;;;;;;;;;;;;;21.30;33.86;102032.03;5077340;28;4160;-71
2022/03/12 11:33:09;;;;;;;;;;;;;;;21.32;34.00;102042.91;5077507;28;4030;-71
2022/03/12 11:35:36;;;;;;;;;;;;;;;21.32;34.15;102037.91;5080135;28;4189;-71
2022/03/12 11:38:12;;;;;;;;;;;;;;;21.32;34.18;102035.00;5078968;28;5664;-71
2022/03/12 11:40:42;;;;;;;;;;;;;;;21.32;34.23;102026.38;5076850;28;5206;-71
2022/03/12 11:43:21;;;;;;;;;;;;;;;21.31;34.36;102021.25;5079503;28;4195;-71
2022/03/12 11:46:00;;;;;;;;;;;;;;;21.31;34.55;102027.03;5076796;28;4248;-71
2022/03/12 11:48:27;;;;;;;;;;;;;;;21.32;34.57;102016.97;5078232;28;4215;-72
2022/03/12 11:50:53;;;;;;;;;;;;;;;21.32;34.53;102022.75;5079018;28;5308;-71
2022/03/12 11:53:20;;;;;;;;;;;;;;;21.32;34.75;102011.97;5080500;28;4482;-72
2022/03/12 11:56:07;;;;;;;;;;;;;;;21.32;34.86;102016.97;5081413;27;4165;-71
2022/03/12 11:58:34;;;;;;;;;;;;;;;21.32;34.81;102008.34;5081616;28;4225;-72
2022/03/12 12:01:00;;;;;;;;;;;;;;;21.30;34.83;102003.22;5079326;28;4944;-72
2022/03/12 12:03:26;;;;;;;;;;;;;;;21.30;34.94;102006.09;5080806;28;5201;-71
2022/03/12 12:05:55;;;;;;;;;;;;;;;21.29;34.97;101998.81;5079533;28;4691;-71
2022/03/12 12:08:21;;;;;;;;;;;;;;;21.29;35.04;101995.94;5077577;28;4152;-71
2022/03/12 12:10:48;;;;;;;;;;;;;;;21.29;35.10;101995.94;5072639;28;4474;-71
2022/03/12 12:13:14;;;;;;;;;;;;;;;21.30;35.17;102000.34;5074278;28;4210;-71
2022/03/12 12:15:41;;;;;;;;;;;;;;;21.29;35.09;101989.44;5075159;28;4279;-70
2022/03/12 12:18:08;;;;;;;;;;;;;;;21.31;35.27;101992.44;5075266;28;5236;-70
2022/03/12 12:20:34;;;;;;;;;;;;;;;21.33;35.36;101978.16;5076409;28;4151;-70
2022/03/12 12:23:01;;;;;;;;;;;;;;;21.36;35.15;101981.91;5078551;28;4168;-70
2022/03/12 12:25:34;;;;;;;;;;;;;;;21.36;35.06;101976.16;5076669;28;4232;-70
2022/03/12 12:28:12;;;;;;;;;;;;;;;21.37;35.15;101972.63;5077751;28;4351;-70
2022/03/12 12:30:38;;;;;;;;;;;;;;;21.37;35.15;101966.84;5076570;28;5116;-70
2022/03/12 12:33:22;;;;;;;;;;;;;;;21.38;35.21;101967.63;5077719;28;4539;-70
2022/03/12 12:35:49;;;;;;;;;;;;;;;21.38;35.25;101956.09;5076813;28;4189;-70
2022/03/12 12:38:18;;;;;;;;;;;;;;;21.37;35.34;101958.22;5074860;28;4206;-70
2022/03/12 12:40:51;;;;;;;;;;;;;;;21.38;35.39;101956.09;5076387;28;4258;-70
2022/03/12 12:43:20;;;;;;;;;;;;;;;21.38;35.37;101950.34;5076384;28;4276;-70
2022/03/12 12:45:53;;;;;;;;;;;;;;;21.38;35.44;101947.47;5076797;28;4182;-70
2022/03/12 12:48:31;;;;;;;;;;;;;;;21.37;35.47;101943.06;5076343;28;5330;-70
2022/03/12 12:51:07;;;;;;;;;;;;;;;21.38;35.65;101950.34;5077326;28;4174;-70
2022/03/12 12:53:43;;;;;;;;;;;;;;;21.37;35.64;101945.94;5078362;27;4310;-70